sensor_id;sensor_type;location;lat;lon;timestamp;P1;durP1;ratioP1;P2;durP2;ratioP2
22357;SDS011;11346;50.150;8.150;2023-08-01T00:01:33;0.70;;;0.70;;
22357;SDS011;11346;50.150;8.150;2023-08-01T00:04:01;0.63;;;0.60;;
22357;SDS011;11346;50.150;8.150;2023-08-01T00:06:28;0.60;;;0.60;;
22357;SDS011;11346;50.150;8.150;2023-08-01T00:08:56;0.80;;;0.80;;
22357;SDS011;11346;50.150;8.150;2023-08-01T00:11:23;0.93;;;0.93;;
22357;SDS011;11346;50.150;8.150;2023-08-01T00:13:50;1.13;;;0.90;;
22357;SDS011;11346;50.150;8.150;2023-08-01T00:16:17;1.10;;;1.00;;
22357;SDS011;11346;50.150;8.150;2023-08-01T00:18:44;0.90;;;0.90;;
22357;SDS011;11346;50.150;8.150;2023-08-01T00:21:12;1.40;;;1.30;;
22357;SDS011;11346;50.150;8.150;2023-08-01T00:23:39;1.70;;;1.20;;
22357;SDS011;11346;50.150;8.150;2023-08-01T00:26:06;2.33;;;1.40;;
22357;SDS011;11346;50.150;8.150;2023-08-01T00:28:33;1.70;;;1.50;;
22357;SDS011;11346;50.150;8.150;2023-08-01T00:31:01;4.13;;;1.40;;
22357;SDS011;11346;50.150;8.150;2023-08-01T00:33:28;1.97;;;1.60;;
22357;SDS011;11346;50.150;8.150;2023-08-01T00:35:55;1.53;;;1.43;;
22357;SDS011;11346;50.150;8.150;2023-08-01T00:38:24;2.30;;;2.00;;
22357;SDS011;11346;50.150;8.150;2023-08-01T00:40:51;2.03;;;1.67;;
22357;SDS011;11346;50.150;8.150;2023-08-01T00:43:18;3.63;;;1.63;;
22357;SDS011;11346;50.150;8.150;2023-08-01T00:45:45;2.13;;;1.83;;
22357;SDS011;11346;50.150;8.150;2023-08-01T00:48:12;5.27;;;1.80;;
22357;SDS011;11346;50.150;8.150;2023-08-01T00:50:39;1.87;;;1.73;;
22357;SDS011;11346;50.150;8.150;2023-08-01T00:53:06;1.67;;;1.57;;
22357;SDS011;11346;50.150;8.150;2023-08-01T00:55:35;4.03;;;2.00;;
22357;SDS011;11346;50.150;8.150;2023-08-01T00:58:02;1.90;;;1.70;;
22357;SDS011;11346;50.150;8.150;2023-08-01T01:00:29;2.43;;;1.80;;
22357;SDS011;11346;50.150;8.150;2023-08-01T01:02:56;4.53;;;1.57;;
22357;SDS011;11346;50.150;8.150;2023-08-01T01:05:23;1.50;;;1.40;;
22357;SDS011;11346;50.150;8.150;2023-08-01T01:07:51;1.90;;;1.33;;
22357;SDS011;11346;50.150;8.150;2023-08-01T01:10:19;1.23;;;1.13;;
22357;SDS011;11346;50.150;8.150;2023-08-01T01:12:47;1.93;;;1.43;;
22357;SDS011;11346;50.150;8.150;2023-08-01T01:15:15;2.20;;;1.30;;
22357;SDS011;11346;50.150;8.150;2023-08-01T01:17:42;1.43;;;1.17;;
22357;SDS011;11346;50.150;8.150;2023-08-01T01:20:09;1.17;;;1.10;;
22357;SDS011;11346;50.150;8.150;2023-08-01T01:22:38;2.20;;;1.40;;
22357;SDS011;11346;50.150;8.150;2023-08-01T01:25:08;1.60;;;1.50;;
22357;SDS011;11346;50.150;8.150;2023-08-01T01:27:36;2.50;;;1.50;;
22357;SDS011;11346;50.150;8.150;2023-08-01T01:30:05;1.97;;;1.70;;
22357;SDS011;11346;50.150;8.150;2023-08-01T01:32:33;1.63;;;1.40;;
22357;SDS011;11346;50.150;8.150;2023-08-01T01:35:01;1.97;;;1.67;;
22357;SDS011;11346;50.150;8.150;2023-08-01T01:37:28;3.00;;;1.80;;
22357;SDS011;11346;50.150;8.150;2023-08-01T01:39:56;5.77;;;1.90;;
22357;SDS011;11346;50.150;8.150;2023-08-01T01:42:23;6.90;;;2.20;;
22357;SDS011;11346;50.150;8.150;2023-08-01T01:44:50;2.50;;;2.30;;
22357;SDS011;11346;50.150;8.150;2023-08-01T01:47:17;2.30;;;2.10;;
22357;SDS011;11346;50.150;8.150;2023-08-01T01:49:44;2.70;;;2.10;;
22357;SDS011;11346;50.150;8.150;2023-08-01T01:52:11;3.90;;;2.10;;
22357;SDS011;11346;50.150;8.150;2023-08-01T01:54:38;2.93;;;2.13;;
22357;SDS011;11346;50.150;8.150;2023-08-01T01:57:07;4.90;;;2.60;;
22357;SDS011;11346;50.150;8.150;2023-08-01T01:59:34;1.70;;;1.60;;
22357;SDS011;11346;50.150;8.150;2023-08-01T02:02:01;2.27;;;2.00;;
22357;SDS011;11346;50.150;8.150;2023-08-01T02:04:29;4.83;;;2.20;;
22357;SDS011;11346;50.150;8.150;2023-08-01T02:06:56;2.03;;;1.70;;
22357;SDS011;11346;50.150;8.150;2023-08-01T02:09:23;2.40;;;2.00;;
22357;SDS011;11346;50.150;8.150;2023-08-01T02:11:50;3.13;;;2.00;;
22357;SDS011;11346;50.150;8.150;2023-08-01T02:14:19;4.27;;;2.43;;
22357;SDS011;11346;50.150;8.150;2023-08-01T02:16:46;2.67;;;2.00;;
22357;SDS011;11346;50.150;8.150;2023-08-01T02:19:13;2.10;;;1.90;;
22357;SDS011;11346;50.150;8.150;2023-08-01T02:21:40;3.70;;;1.97;;
22357;SDS011;11346;50.150;8.150;2023-08-01T02:24:07;2.50;;;1.90;;
22357;SDS011;11346;50.150;8.150;2023-08-01T02:26:34;2.30;;;2.00;;
22357;SDS011;11346;50.150;8.150;2023-08-01T02:29:01;2.27;;;1.30;;
22357;SDS011;11346;50.150;8.150;2023-08-01T02:31:29;6.47;;;2.07;;
22357;SDS011;11346;50.150;8.150;2023-08-01T02:33:56;2.83;;;2.00;;
22357;SDS011;11346;50.150;8.150;2023-08-01T02:36:23;2.70;;;2.10;;
22357;SDS011;11346;50.150;8.150;2023-08-01T02:38:50;2.83;;;1.83;;
22357;SDS011;11346;50.150;8.150;2023-08-01T02:41:17;2.40;;;2.20;;
22357;SDS011;11346;50.150;8.150;2023-08-01T02:43:43;2.37;;;2.17;;
22357;SDS011;11346;50.150;8.150;2023-08-01T02:46:11;2.60;;;1.77;;
22357;SDS011;11346;50.150;8.150;2023-08-01T02:48:39;4.43;;;1.93;;
22357;SDS011;11346;50.150;8.150;2023-08-01T02:51:06;1.90;;;1.70;;
22357;SDS011;11346;50.150;8.150;2023-08-01T02:53:34;1.93;;;1.73;;
22357;SDS011;11346;50.150;8.150;2023-08-01T02:56:01;2.70;;;1.70;;
22357;SDS011;11346;50.150;8.150;2023-08-01T02:58:29;2.40;;;2.13;;
22357;SDS011;11346;50.150;8.150;2023-08-01T03:00:57;2.50;;;2.07;;
22357;SDS011;11346;50.150;8.150;2023-08-01T03:03:24;1.80;;;1.70;;
22357;SDS011;11346;50.150;8.150;2023-08-01T03:05:52;2.83;;;1.57;;
22357;SDS011;11346;50.150;8.150;2023-08-01T03:08:19;1.40;;;1.30;;
22357;SDS011;11346;50.150;8.150;2023-08-01T03:10:46;1.87;;;1.63;;
22357;SDS011;11346;50.150;8.150;2023-08-01T03:13:14;1.90;;;1.30;;
22357;SDS011;11346;50.150;8.150;2023-08-01T03:15:41;2.87;;;1.60;;
22357;SDS011;11346;50.150;8.150;2023-08-01T03:18:08;2.13;;;1.20;;
22357;SDS011;11346;50.150;8.150;2023-08-01T03:20:35;1.47;;;1.30;;
22357;SDS011;11346;50.150;8.150;2023-08-01T03:23:04;2.60;;;1.40;;
22357;SDS011;11346;50.150;8.150;2023-08-01T03:25:31;1.63;;;1.20;;
22357;SDS011;11346;50.150;8.150;2023-08-01T03:27:58;1.27;;;1.17;;
22357;SDS011;11346;50.150;8.150;2023-08-01T03:30:25;1.50;;;1.40;;
22357;SDS011;11346;50.150;8.150;2023-08-01T03:32:53;1.83;;;1.20;;
22357;SDS011;11346;50.150;8.150;2023-08-01T03:35:20;2.20;;;1.27;;
22357;SDS011;11346;50.150;8.150;2023-08-01T03:37:47;2.23;;;1.20;;
22357;SDS011;11346;50.150;8.150;2023-08-01T03:40:16;3.43;;;1.00;;
22357;SDS011;11346;50.150;8.150;2023-08-01T03:42:44;1.20;;;1.10;;
22357;SDS011;11346;50.150;8.150;2023-08-01T03:45:11;1.17;;;1.00;;
22357;SDS011;11346;50.150;8.150;2023-08-01T03:47:38;0.77;;;0.77;;
22357;SDS011;11346;50.150;8.150;2023-08-01T03:50:06;4.40;;;0.80;;
22357;SDS011;11346;50.150;8.150;2023-08-01T03:52:33;0.80;;;0.80;;
22357;SDS011;11346;50.150;8.150;2023-08-01T03:55:00;0.90;;;0.90;;
22357;SDS011;11346;50.150;8.150;2023-08-01T03:57:28;5.43;;;0.90;;
22357;SDS011;11346;50.150;8.150;2023-08-01T03:59:55;0.70;;;0.70;;
22357;SDS011;11346;50.150;8.150;2023-08-01T04:02:22;0.70;;;0.70;;
22357;SDS011;11346;50.150;8.150;2023-08-01T04:04:49;1.33;;;0.90;;
22357;SDS011;11346;50.150;8.150;2023-08-01T04:07:16;2.53;;;0.90;;
22357;SDS011;11346;50.150;8.150;2023-08-01T04:09:43;2.07;;;1.10;;
22357;SDS011;11346;50.150;8.150;2023-08-01T04:12:11;1.00;;;1.00;;
22357;SDS011;11346;50.150;8.150;2023-08-01T04:14:39;4.00;;;1.00;;
22357;SDS011;11346;50.150;8.150;2023-08-01T04:17:06;1.30;;;1.00;;
22357;SDS011;11346;50.150;8.150;2023-08-01T04:19:33;0.90;;;0.90;;
22357;SDS011;11346;50.150;8.150;2023-08-01T04:22:00;2.73;;;1.00;;
22357;SDS011;11346;50.150;8.150;2023-08-01T04:24:27;0.70;;;0.70;;
22357;SDS011;11346;50.150;8.150;2023-08-01T04:26:56;6.53;;;0.90;;
22357;SDS011;11346;50.150;8.150;2023-08-01T04:29:23;3.27;;;1.00;;
22357;SDS011;11346;50.150;8.150;2023-08-01T04:31:51;2.77;;;0.93;;
22357;SDS011;11346;50.150;8.150;2023-08-01T04:34:18;1.53;;;0.83;;
22357;SDS011;11346;50.150;8.150;2023-08-01T04:36:45;6.53;;;1.07;;
22357;SDS011;11346;50.150;8.150;2023-08-01T04:39:12;3.27;;;1.00;;
22357;SDS011;11346;50.150;8.150;2023-08-01T04:41:39;4.87;;;0.90;;
22357;SDS011;11346;50.150;8.150;2023-08-01T04:44:06;1.23;;;0.80;;
22357;SDS011;11346;50.150;8.150;2023-08-01T04:46:33;0.90;;;0.87;;
22357;SDS011;11346;50.150;8.150;2023-08-01T04:49:02;1.27;;;0.80;;
22357;SDS011;11346;50.150;8.150;2023-08-01T04:51:29;1.20;;;0.83;;
22357;SDS011;11346;50.150;8.150;2023-08-01T04:53:56;0.90;;;0.90;;
22357;SDS011;11346;50.150;8.150;2023-08-01T04:56:23;1.17;;;1.00;;
22357;SDS011;11346;50.150;8.150;2023-08-01T04:58:50;1.23;;;1.17;;
22357;SDS011;11346;50.150;8.150;2023-08-01T05:01:17;1.20;;;1.10;;
22357;SDS011;11346;50.150;8.150;2023-08-01T05:03:44;1.60;;;1.20;;
22357;SDS011;11346;50.150;8.150;2023-08-01T05:06:12;1.23;;;1.13;;
22357;SDS011;11346;50.150;8.150;2023-08-01T05:08:39;1.00;;;0.90;;
22357;SDS011;11346;50.150;8.150;2023-08-01T05:11:06;1.17;;;1.13;;
22357;SDS011;11346;50.150;8.150;2023-08-01T05:13:33;1.03;;;1.03;;
22357;SDS011;11346;50.150;8.150;2023-08-01T05:16:00;2.07;;;1.00;;
22357;SDS011;11346;50.150;8.150;2023-08-01T05:18:28;1.67;;;1.30;;
22357;SDS011;11346;50.150;8.150;2023-08-01T05:20:55;1.87;;;1.00;;
22357;SDS011;11346;50.150;8.150;2023-08-01T05:23:23;3.67;;;1.00;;
22357;SDS011;11346;50.150;8.150;2023-08-01T05:25:50;1.70;;;1.07;;
22357;SDS011;11346;50.150;8.150;2023-08-01T05:28:17;6.73;;;1.00;;
22357;SDS011;11346;50.150;8.150;2023-08-01T05:30:44;5.37;;;1.23;;
22357;SDS011;11346;50.150;8.150;2023-08-01T05:33:11;1.97;;;1.10;;
22357;SDS011;11346;50.150;8.150;2023-08-01T05:35:38;0.60;;;0.60;;
22357;SDS011;11346;50.150;8.150;2023-08-01T05:38:06;0.97;;;0.70;;
22357;SDS011;11346;50.150;8.150;2023-08-01T05:40:34;0.83;;;0.70;;
22357;SDS011;11346;50.150;8.150;2023-08-01T05:43:01;0.70;;;0.70;;
22357;SDS011;11346;50.150;8.150;2023-08-01T05:45:29;4.83;;;0.90;;
22357;SDS011;11346;50.150;8.150;2023-08-01T05:47:56;0.67;;;0.67;;
22357;SDS011;11346;50.150;8.150;2023-08-01T05:50:23;0.60;;;0.60;;
22357;SDS011;11346;50.150;8.150;2023-08-01T05:52:50;0.60;;;0.60;;
22357;SDS011;11346;50.150;8.150;2023-08-01T05:55:17;0.40;;;0.40;;
22357;SDS011;11346;50.150;8.150;2023-08-01T05:57:46;0.53;;;0.50;;
22357;SDS011;11346;50.150;8.150;2023-08-01T06:00:14;0.93;;;0.43;;
22357;SDS011;11346;50.150;8.150;2023-08-01T06:02:41;0.57;;;0.57;;
22357;SDS011;11346;50.150;8.150;2023-08-01T06:05:08;0.37;;;0.37;;
22357;SDS011;11346;50.150;8.150;2023-08-01T06:07:35;1.07;;;0.50;;
22357;SDS011;11346;50.150;8.150;2023-08-01T06:10:02;0.50;;;0.50;;
22357;SDS011;11346;50.150;8.150;2023-08-01T06:12:30;0.60;;;0.60;;
22357;SDS011;11346;50.150;8.150;2023-08-01T06:14:58;1.00;;;0.90;;
22357;SDS011;11346;50.150;8.150;2023-08-01T06:17:25;0.90;;;0.90;;
22357;SDS011;11346;50.150;8.150;2023-08-01T06:19:52;1.83;;;1.10;;
22357;SDS011;11346;50.150;8.150;2023-08-01T06:22:20;1.47;;;1.03;;
22357;SDS011;11346;50.150;8.150;2023-08-01T06:24:47;2.10;;;1.33;;
22357;SDS011;11346;50.150;8.150;2023-08-01T06:27:14;1.87;;;1.30;;
22357;SDS011;11346;50.150;8.150;2023-08-01T06:29:42;1.50;;;1.40;;
22357;SDS011;11346;50.150;8.150;2023-08-01T06:32:11;1.70;;;1.30;;
22357;SDS011;11346;50.150;8.150;2023-08-01T06:34:38;1.10;;;1.10;;
22357;SDS011;11346;50.150;8.150;2023-08-01T06:37:05;1.80;;;1.47;;
22357;SDS011;11346;50.150;8.150;2023-08-01T06:39:32;1.40;;;1.30;;
22357;SDS011;11346;50.150;8.150;2023-08-01T06:41:59;2.97;;;1.30;;
22357;SDS011;11346;50.150;8.150;2023-08-01T06:44:26;1.97;;;1.57;;
22357;SDS011;11346;50.150;8.150;2023-08-01T06:46:53;1.57;;;1.40;;
22357;SDS011;11346;50.150;8.150;2023-08-01T06:49:21;1.37;;;1.20;;
22357;SDS011;11346;50.150;8.150;2023-08-01T06:51:48;3.30;;;1.43;;
22357;SDS011;11346;50.150;8.150;2023-08-01T06:54:15;3.60;;;1.50;;
22357;SDS011;11346;50.150;8.150;2023-08-01T06:56:42;2.20;;;1.90;;
22357;SDS011;11346;50.150;8.150;2023-08-01T06:59:12;2.43;;;1.37;;
22357;SDS011;11346;50.150;8.150;2023-08-01T07:01:40;1.20;;;1.20;;
22357;SDS011;11346;50.150;8.150;2023-08-01T07:04:08;2.47;;;1.33;;
22357;SDS011;11346;50.150;8.150;2023-08-01T07:06:36;2.30;;;1.50;;
22357;SDS011;11346;50.150;8.150;2023-08-01T07:09:03;2.73;;;1.43;;
22357;SDS011;11346;50.150;8.150;2023-08-01T07:11:31;2.07;;;1.50;;
22357;SDS011;11346;50.150;8.150;2023-08-01T07:13:58;1.90;;;1.50;;
22357;SDS011;11346;50.150;8.150;2023-08-01T07:16:25;3.07;;;1.50;;
22357;SDS011;11346;50.150;8.150;2023-08-01T07:18:52;1.50;;;1.30;;
22357;SDS011;11346;50.150;8.150;2023-08-01T07:21:19;2.23;;;1.57;;
22357;SDS011;11346;50.150;8.150;2023-08-01T07:23:47;1.60;;;1.30;;
22357;SDS011;11346;50.150;8.150;2023-08-01T07:26:14;2.83;;;1.63;;
22357;SDS011;11346;50.150;8.150;2023-08-01T07:28:41;1.67;;;1.57;;
22357;SDS011;11346;50.150;8.150;2023-08-01T07:31:09;2.50;;;1.50;;
22357;SDS011;11346;50.150;8.150;2023-08-01T07:33:36;1.73;;;1.60;;
22357;SDS011;11346;50.150;8.150;2023-08-01T07:36:03;1.60;;;1.50;;
22357;SDS011;11346;50.150;8.150;2023-08-01T07:38:30;1.70;;;1.60;;
22357;SDS011;11346;50.150;8.150;2023-08-01T07:41:01;2.63;;;1.50;;
22357;SDS011;11346;50.150;8.150;2023-08-01T07:43:28;2.93;;;1.60;;
22357;SDS011;11346;50.150;8.150;2023-08-01T07:45:56;1.40;;;1.30;;
22357;SDS011;11346;50.150;8.150;2023-08-01T07:48:23;1.90;;;1.50;;
22357;SDS011;11346;50.150;8.150;2023-08-01T07:50:50;1.70;;;1.50;;
22357;SDS011;11346;50.150;8.150;2023-08-01T07:53:17;2.63;;;1.60;;
22357;SDS011;11346;50.150;8.150;2023-08-01T07:55:44;3.60;;;1.73;;
22357;SDS011;11346;50.150;8.150;2023-08-01T07:58:12;2.17;;;1.70;;
22357;SDS011;11346;50.150;8.150;2023-08-01T08:00:39;1.47;;;1.37;;
22357;SDS011;11346;50.150;8.150;2023-08-01T08:03:06;1.77;;;1.60;;
22357;SDS011;11346;50.150;8.150;2023-08-01T08:05:33;1.67;;;1.57;;
22357;SDS011;11346;50.150;8.150;2023-08-01T08:08:03;2.03;;;1.50;;
22357;SDS011;11346;50.150;8.150;2023-08-01T08:10:30;2.70;;;1.60;;
22357;SDS011;11346;50.150;8.150;2023-08-01T08:12:57;1.63;;;1.47;;
22357;SDS011;11346;50.150;8.150;2023-08-01T08:15:25;3.17;;;1.70;;
22357;SDS011;11346;50.150;8.150;2023-08-01T08:17:54;1.43;;;1.30;;
22357;SDS011;11346;50.150;8.150;2023-08-01T08:20:22;3.47;;;1.80;;
22357;SDS011;11346;50.150;8.150;2023-08-01T08:22:49;1.87;;;1.60;;
22357;SDS011;11346;50.150;8.150;2023-08-01T08:25:16;1.60;;;1.50;;
22357;SDS011;11346;50.150;8.150;2023-08-01T08:27:43;5.40;;;1.80;;
22357;SDS011;11346;50.150;8.150;2023-08-01T08:30:10;2.23;;;1.50;;
22357;SDS011;11346;50.150;8.150;2023-08-01T08:32:38;2.53;;;1.70;;
22357;SDS011;11346;50.150;8.150;2023-08-01T08:35:06;4.27;;;2.00;;
22357;SDS011;11346;50.150;8.150;2023-08-01T08:37:33;2.07;;;1.70;;
22357;SDS011;11346;50.150;8.150;2023-08-01T08:40:01;3.87;;;1.57;;
22357;SDS011;11346;50.150;8.150;2023-08-01T08:42:28;2.37;;;1.70;;
22357;SDS011;11346;50.150;8.150;2023-08-01T08:44:55;2.30;;;1.60;;
22357;SDS011;11346;50.150;8.150;2023-08-01T08:47:24;2.13;;;1.50;;
22357;SDS011;11346;50.150;8.150;2023-08-01T08:49:53;1.87;;;1.57;;
22357;SDS011;11346;50.150;8.150;2023-08-01T08:52:22;1.70;;;1.50;;
22357;SDS011;11346;50.150;8.150;2023-08-01T08:54:49;2.10;;;1.70;;
22357;SDS011;11346;50.150;8.150;2023-08-01T08:57:17;1.73;;;1.50;;
22357;SDS011;11346;50.150;8.150;2023-08-01T08:59:45;1.50;;;1.40;;
22357;SDS011;11346;50.150;8.150;2023-08-01T09:02:13;1.90;;;1.77;;
22357;SDS011;11346;50.150;8.150;2023-08-01T09:04:41;2.37;;;1.50;;
22357;SDS011;11346;50.150;8.150;2023-08-01T09:07:10;2.37;;;1.70;;
22357;SDS011;11346;50.150;8.150;2023-08-01T09:09:37;4.13;;;1.53;;
22357;SDS011;11346;50.150;8.150;2023-08-01T09:12:05;2.97;;;1.70;;
22357;SDS011;11346;50.150;8.150;2023-08-01T09:14:32;4.57;;;2.03;;
22357;SDS011;11346;50.150;8.150;2023-08-01T09:17:05;1.70;;;1.60;;
22357;SDS011;11346;50.150;8.150;2023-08-01T09:19:32;4.27;;;1.77;;
22357;SDS011;11346;50.150;8.150;2023-08-01T09:21:59;3.80;;;1.70;;
22357;SDS011;11346;50.150;8.150;2023-08-01T09:24:28;2.30;;;1.97;;
22357;SDS011;11346;50.150;8.150;2023-08-01T09:27:01;3.57;;;1.80;;
22357;SDS011;11346;50.150;8.150;2023-08-01T09:29:29;2.67;;;1.70;;
22357;SDS011;11346;50.150;8.150;2023-08-01T09:31:57;1.83;;;1.70;;
22357;SDS011;11346;50.150;8.150;2023-08-01T09:34:25;3.73;;;1.80;;
22357;SDS011;11346;50.150;8.150;2023-08-01T09:36:57;1.70;;;1.60;;
22357;SDS011;11346;50.150;8.150;2023-08-01T09:39:24;2.63;;;1.70;;
22357;SDS011;11346;50.150;8.150;2023-08-01T09:41:56;2.27;;;1.63;;
22357;SDS011;11346;50.150;8.150;2023-08-01T09:44:23;2.03;;;1.83;;
22357;SDS011;11346;50.150;8.150;2023-08-01T09:46:55;4.03;;;1.77;;
22357;SDS011;11346;50.150;8.150;2023-08-01T09:49:22;2.00;;;1.70;;
22357;SDS011;11346;50.150;8.150;2023-08-01T09:51:50;4.67;;;1.77;;
22357;SDS011;11346;50.150;8.150;2023-08-01T09:54:17;1.70;;;1.60;;
22357;SDS011;11346;50.150;8.150;2023-08-01T09:56:45;3.00;;;1.90;;
22357;SDS011;11346;50.150;8.150;2023-08-01T09:59:15;3.03;;;1.80;;
22357;SDS011;11346;50.150;8.150;2023-08-01T10:01:44;4.33;;;2.00;;
22357;SDS011;11346;50.150;8.150;2023-08-01T10:04:15;2.00;;;1.70;;
22357;SDS011;11346;50.150;8.150;2023-08-01T10:06:43;2.90;;;1.60;;
22357;SDS011;11346;50.150;8.150;2023-08-01T10:09:12;1.90;;;1.67;;
22357;SDS011;11346;50.150;8.150;2023-08-01T10:11:39;6.27;;;2.53;;
22357;SDS011;11346;50.150;8.150;2023-08-01T10:14:07;3.83;;;2.00;;
22357;SDS011;11346;50.150;8.150;2023-08-01T10:16:35;2.30;;;2.10;;
22357;SDS011;11346;50.150;8.150;2023-08-01T10:19:04;4.93;;;2.10;;
22357;SDS011;11346;50.150;8.150;2023-08-01T10:21:33;4.93;;;2.03;;
22357;SDS011;11346;50.150;8.150;2023-08-01T10:24:00;2.17;;;1.87;;
22357;SDS011;11346;50.150;8.150;2023-08-01T10:26:29;1.80;;;1.70;;
22357;SDS011;11346;50.150;8.150;2023-08-01T10:28:56;2.50;;;1.70;;
22357;SDS011;11346;50.150;8.150;2023-08-01T10:31:25;2.17;;;1.70;;
22357;SDS011;11346;50.150;8.150;2023-08-01T10:34:02;2.43;;;2.10;;
22357;SDS011;11346;50.150;8.150;2023-08-01T10:36:30;2.40;;;1.80;;
22357;SDS011;11346;50.150;8.150;2023-08-01T10:38:58;3.43;;;1.60;;
22357;SDS011;11346;50.150;8.150;2023-08-01T10:41:26;1.77;;;1.60;;
22357;SDS011;11346;50.150;8.150;2023-08-01T10:44:03;3.57;;;2.17;;
22357;SDS011;11346;50.150;8.150;2023-08-01T10:46:44;2.47;;;1.70;;
22357;SDS011;11346;50.150;8.150;2023-08-01T10:49:12;1.80;;;1.70;;
22357;SDS011;11346;50.150;8.150;2023-08-01T10:51:40;1.67;;;1.50;;
22357;SDS011;11346;50.150;8.150;2023-08-01T10:54:07;3.87;;;1.67;;
22357;SDS011;11346;50.150;8.150;2023-08-01T10:56:44;2.90;;;1.67;;
22357;SDS011;11346;50.150;8.150;2023-08-01T10:59:12;1.60;;;1.50;;
22357;SDS011;11346;50.150;8.150;2023-08-01T11:01:43;4.17;;;1.70;;
22357;SDS011;11346;50.150;8.150;2023-08-01T11:04:14;1.83;;;1.60;;
22357;SDS011;11346;50.150;8.150;2023-08-01T11:06:45;3.10;;;1.67;;
22357;SDS011;11346;50.150;8.150;2023-08-01T11:09:15;1.93;;;1.70;;
22357;SDS011;11346;50.150;8.150;2023-08-01T11:11:43;2.47;;;1.63;;
22357;SDS011;11346;50.150;8.150;2023-08-01T11:14:11;3.37;;;2.00;;
22357;SDS011;11346;50.150;8.150;2023-08-01T11:16:37;1.87;;;1.60;;
22357;SDS011;11346;50.150;8.150;2023-08-01T11:19:04;4.73;;;1.80;;
22357;SDS011;11346;50.150;8.150;2023-08-01T11:21:33;2.97;;;2.00;;
22357;SDS011;11346;50.150;8.150;2023-08-01T11:24:06;2.10;;;1.87;;
22357;SDS011;11346;50.150;8.150;2023-08-01T11:26:33;3.03;;;1.80;;
22357;SDS011;11346;50.150;8.150;2023-08-01T11:29:01;3.83;;;1.70;;
22357;SDS011;11346;50.150;8.150;2023-08-01T11:31:28;3.80;;;1.80;;
22357;SDS011;11346;50.150;8.150;2023-08-01T11:33:56;3.43;;;1.70;;
22357;SDS011;11346;50.150;8.150;2023-08-01T11:36:25;2.37;;;1.90;;
22357;SDS011;11346;50.150;8.150;2023-08-01T11:38:54;1.80;;;1.70;;
22357;SDS011;11346;50.150;8.150;2023-08-01T11:41:22;2.70;;;1.60;;
22357;SDS011;11346;50.150;8.150;2023-08-01T11:43:50;3.10;;;1.70;;
22357;SDS011;11346;50.150;8.150;2023-08-01T11:46:18;1.70;;;1.50;;
22357;SDS011;11346;50.150;8.150;2023-08-01T11:48:45;1.60;;;1.50;;
22357;SDS011;11346;50.150;8.150;2023-08-01T11:51:12;5.23;;;1.70;;
22357;SDS011;11346;50.150;8.150;2023-08-01T11:53:39;3.90;;;1.70;;
22357;SDS011;11346;50.150;8.150;2023-08-01T11:56:08;3.13;;;1.87;;
22357;SDS011;11346;50.150;8.150;2023-08-01T11:58:36;2.63;;;1.97;;
22357;SDS011;11346;50.150;8.150;2023-08-01T12:01:04;6.20;;;2.13;;
22357;SDS011;11346;50.150;8.150;2023-08-01T12:03:31;6.63;;;2.20;;
22357;SDS011;11346;50.150;8.150;2023-08-01T12:06:03;3.93;;;2.33;;
22357;SDS011;11346;50.150;8.150;2023-08-01T12:08:32;5.97;;;2.00;;
22357;SDS011;11346;50.150;8.150;2023-08-01T12:10:59;4.30;;;1.80;;
22357;SDS011;11346;50.150;8.150;2023-08-01T12:13:28;2.07;;;1.60;;
22357;SDS011;11346;50.150;8.150;2023-08-01T12:15:56;3.47;;;1.90;;
22357;SDS011;11346;50.150;8.150;2023-08-01T12:18:24;2.97;;;2.00;;
22357;SDS011;11346;50.150;8.150;2023-08-01T12:20:51;2.40;;;1.97;;
22357;SDS011;11346;50.150;8.150;2023-08-01T12:23:18;3.80;;;2.27;;
22357;SDS011;11346;50.150;8.150;2023-08-01T12:25:46;3.30;;;1.93;;
22357;SDS011;11346;50.150;8.150;2023-08-01T12:28:14;3.73;;;2.07;;
22357;SDS011;11346;50.150;8.150;2023-08-01T12:30:42;4.73;;;2.43;;
22357;SDS011;11346;50.150;8.150;2023-08-01T12:33:10;2.83;;;2.23;;
22357;SDS011;11346;50.150;8.150;2023-08-01T12:35:38;2.80;;;1.80;;
22357;SDS011;11346;50.150;8.150;2023-08-01T12:38:06;3.27;;;1.90;;
22357;SDS011;11346;50.150;8.150;2023-08-01T12:40:33;4.77;;;2.50;;
22357;SDS011;11346;50.150;8.150;2023-08-01T12:43:00;5.33;;;2.10;;
22357;SDS011;11346;50.150;8.150;2023-08-01T12:45:27;3.97;;;2.10;;
22357;SDS011;11346;50.150;8.150;2023-08-01T12:47:56;3.77;;;2.27;;
22357;SDS011;11346;50.150;8.150;2023-08-01T12:50:23;4.47;;;2.03;;
22357;SDS011;11346;50.150;8.150;2023-08-01T12:52:50;2.73;;;1.80;;
22357;SDS011;11346;50.150;8.150;2023-08-01T12:55:17;2.37;;;2.00;;
22357;SDS011;11346;50.150;8.150;2023-08-01T12:57:44;2.97;;;2.10;;
22357;SDS011;11346;50.150;8.150;2023-08-01T13:00:11;2.80;;;1.93;;
22357;SDS011;11346;50.150;8.150;2023-08-01T13:02:39;2.03;;;1.63;;
22357;SDS011;11346;50.150;8.150;2023-08-01T13:05:07;3.07;;;1.73;;
22357;SDS011;11346;50.150;8.150;2023-08-01T13:07:35;5.50;;;2.10;;
22357;SDS011;11346;50.150;8.150;2023-08-01T13:10:02;3.57;;;2.20;;
22357;SDS011;11346;50.150;8.150;2023-08-01T13:12:29;4.23;;;1.67;;
22357;SDS011;11346;50.150;8.150;2023-08-01T13:14:56;2.93;;;1.97;;
22357;SDS011;11346;50.150;8.150;2023-08-01T13:17:23;15.60;;;4.20;;
22357;SDS011;11346;50.150;8.150;2023-08-01T13:19:50;8.77;;;2.70;;
22357;SDS011;11346;50.150;8.150;2023-08-01T13:22:19;6.03;;;2.90;;
22357;SDS011;11346;50.150;8.150;2023-08-01T13:24:46;6.17;;;2.73;;
22357;SDS011;11346;50.150;8.150;2023-08-01T13:27:13;4.53;;;2.40;;
22357;SDS011;11346;50.150;8.150;2023-08-01T13:29:40;8.37;;;2.67;;
22357;SDS011;11346;50.150;8.150;2023-08-01T13:32:07;3.20;;;2.47;;
22357;SDS011;11346;50.150;8.150;2023-08-01T13:34:34;5.07;;;2.10;;
22357;SDS011;11346;50.150;8.150;2023-08-01T13:37:01;6.10;;;2.43;;
22357;SDS011;11346;50.150;8.150;2023-08-01T13:39:30;4.30;;;2.20;;
22357;SDS011;11346;50.150;8.150;2023-08-01T13:41:57;6.27;;;2.03;;
22357;SDS011;11346;50.150;8.150;2023-08-01T13:44:24;4.93;;;2.40;;
22357;SDS011;11346;50.150;8.150;2023-08-01T13:46:51;5.07;;;2.60;;
22357;SDS011;11346;50.150;8.150;2023-08-01T13:49:18;2.87;;;2.27;;
22357;SDS011;11346;50.150;8.150;2023-08-01T13:51:45;5.07;;;2.00;;
22357;SDS011;11346;50.150;8.150;2023-08-01T13:54:12;4.13;;;2.20;;
22357;SDS011;11346;50.150;8.150;2023-08-01T13:56:40;3.00;;;2.00;;
22357;SDS011;11346;50.150;8.150;2023-08-01T13:59:08;4.80;;;2.27;;
22357;SDS011;11346;50.150;8.150;2023-08-01T14:01:35;3.10;;;2.10;;
22357;SDS011;11346;50.150;8.150;2023-08-01T14:04:03;3.97;;;2.10;;
22357;SDS011;11346;50.150;8.150;2023-08-01T14:06:30;5.07;;;1.90;;
22357;SDS011;11346;50.150;8.150;2023-08-01T14:08:57;2.97;;;1.70;;
22357;SDS011;11346;50.150;8.150;2023-08-01T14:11:24;2.13;;;1.90;;
22357;SDS011;11346;50.150;8.150;2023-08-01T14:13:52;5.23;;;1.87;;
22357;SDS011;11346;50.150;8.150;2023-08-01T14:16:19;4.03;;;1.90;;
22357;SDS011;11346;50.150;8.150;2023-08-01T14:18:46;7.03;;;2.03;;
22357;SDS011;11346;50.150;8.150;2023-08-01T14:21:14;2.93;;;2.07;;
22357;SDS011;11346;50.150;8.150;2023-08-01T14:23:41;3.37;;;2.10;;
22357;SDS011;11346;50.150;8.150;2023-08-01T14:26:08;4.67;;;2.00;;
22357;SDS011;11346;50.150;8.150;2023-08-01T14:28:35;3.90;;;1.93;;
22357;SDS011;11346;50.150;8.150;2023-08-01T14:31:03;3.60;;;1.83;;
22357;SDS011;11346;50.150;8.150;2023-08-01T14:33:32;2.90;;;1.63;;
22357;SDS011;11346;50.150;8.150;2023-08-01T14:35:59;2.53;;;1.47;;
22357;SDS011;11346;50.150;8.150;2023-08-01T14:38:26;2.77;;;1.37;;
22357;SDS011;11346;50.150;8.150;2023-08-01T14:40:53;4.20;;;1.63;;
22357;SDS011;11346;50.150;8.150;2023-08-01T14:43:20;3.20;;;1.60;;
22357;SDS011;11346;50.150;8.150;2023-08-01T14:45:48;2.87;;;1.63;;
22357;SDS011;11346;50.150;8.150;2023-08-01T14:48:16;2.40;;;1.50;;
22357;SDS011;11346;50.150;8.150;2023-08-01T14:50:45;1.63;;;1.50;;